Terminal Aerodrome Forecast
Issued by NWS Spokane, WA

Home | Current Version | Previous Version | Text Only | Print | Product List | Glossary On
Versions: 1 2 3 4 5 6 7 8 9 10 11 12 13 14 15 16 17 18 19 20 21 22 23 24 25 26 27 28 29 30 31 32 33 34 35 36 37 38 39 40 41 42 43 44
000
FTUS46 KOTX 281129
TAFGEG
TAF
KGEG 281129Z 2812/2912 13003KT 1SM -DZ BR BKN002
     FM282000 VRB03KT 3/4SM BR OVC004
     FM282200 08003KT P6SM BKN008
     FM290600 07002KT 3SM BCFG BKN002
     FM290800 06003KT 1SM BR OVC003=

USA.gov is the U.S. government's official web portal to all federal, state and local government web resources and services.